New Martinsville, West Virginia
Current Conditions -  °F | °C
As of 7:53 AM on Sunday 23 Nov 2014 (Local Time) from KPKB Reporting Station
Broken Clouds Broken Clouds  
Wind Chill: 46°   Ceiling: 3400
Heat Index: 46°   Visibility: 10mi
Dew Point: 26°   Wind: 3mph
Humidity: 46%   Direction: 110°ESE
Pressure: 30.11"   Gusts: NA
Location:  39.64°N, 80.86°W
Report Text: KPKB 231253Z 11003KT 10SM BKN034 08/M03 A3011 RMK AO2 SLP196 T00781033
Loading
Personal Weather Stations






























Interactive Weather Map New forecast layout! Learn more

10-Day Weather Forecast

Advertisements
Track Severe Weather on mobile